Time;durP1;ratioP1;P1;durP2;ratioP2;P2;SDS_P1;SDS_P2;PMS_P1;PMS_P2;Temp;Humidity;BMP_temperature;BMP_pressure;BME280_temperature;BME280_humidity;BME280_pressure;Samples;Min_cycle;Max_cycle;Signal;HPM_P1;HPM_P2
2023/12/26 00:00:49;;;;;;;4.40;1.58;;;10.30;99.90;;;;;;5060113;28;20411;-63
2023/12/26 00:03:15;;;;;;;3.25;1.80;;;10.40;99.90;;;;;;5060703;28;20040;-64
2023/12/26 00:05:41;;;;;;;3.95;1.48;;;10.30;99.90;;;;;;5061749;28;20040;-65
2023/12/26 00:08:07;;;;;;;4.28;2.05;;;10.50;99.90;;;;;;5052334;28;20114;-64
2023/12/26 00:10:34;;;;;;;3.60;1.90;;;10.50;99.90;;;;;;5058541;28;20096;-65
2023/12/26 00:13:00;;;;;;;2.65;1.10;;;10.50;99.90;;;;;;5064139;28;20159;-65
2023/12/26 00:15:27;;;;;;;2.58;1.45;;;10.50;99.90;;;;;;5061579;28;20041;-64
2023/12/26 00:17:53;;;;;;;3.65;1.60;;;10.40;99.90;;;;;;5060566;28;20032;-64
2023/12/26 00:20:18;;;;;;;2.08;1.20;;;10.40;99.90;;;;;;5037452;28;20037;-64
2023/12/26 00:22:44;;;;;;;3.75;1.20;;;10.50;99.90;;;;;;5054031;28;20562;-65
2023/12/26 00:25:11;;;;;;;2.30;1.20;;;10.40;99.90;;;;;;5063921;28;20040;-65
2023/12/26 00:27:38;;;;;;;2.50;1.15;;;10.60;99.90;;;;;;5057624;28;20040;-64
2023/12/26 00:30:05;;;;;;;2.42;1.00;;;10.40;99.90;;;;;;5049967;28;20548;-65
2023/12/26 00:32:31;;;;;;;2.28;0.95;;;10.50;99.90;;;;;;5051469;28;20173;-64
2023/12/26 00:34:58;;;;;;;2.33;1.25;;;10.50;99.90;;;;;;5056854;28;20160;-64
2023/12/26 00:37:24;;;;;;;3.10;1.23;;;10.60;99.90;;;;;;5063432;28;20486;-64
2023/12/26 00:39:50;;;;;;;1.92;1.10;;;10.60;99.90;;;;;;5052747;28;20455;-64
2023/12/26 00:42:16;;;;;;;1.67;1.13;;;10.50;99.90;;;;;;5055983;28;20183;-65
2023/12/26 00:44:41;;;;;;;1.48;1.00;;;10.50;99.90;;;;;;5059384;28;20048;-64
2023/12/26 00:47:07;;;;;;;3.20;1.20;;;10.60;99.90;;;;;;5055786;28;20036;-65
2023/12/26 00:49:33;;;;;;;2.45;0.90;;;10.60;99.90;;;;;;5061882;28;20044;-65
2023/12/26 00:51:59;;;;;;;3.30;1.30;;;10.60;99.90;;;;;;5060653;28;20679;-64
2023/12/26 00:54:25;;;;;;;4.50;1.30;;;10.60;99.90;;;;;;5061692;28;20521;-64
2023/12/26 00:56:50;;;;;;;2.42;0.90;;;10.60;99.90;;;;;;5060786;28;20047;-64
2023/12/26 00:59:16;;;;;;;3.10;1.00;;;10.60;99.90;;;;;;5051662;28;20040;-64
2023/12/26 01:01:42;;;;;;;5.10;1.00;;;10.70;99.90;;;;;;5061002;28;20036;-65
2023/12/26 01:04:08;;;;;;;4.97;1.10;;;10.70;99.90;;;;;;5058309;28;20554;-65
2023/12/26 01:06:34;;;;;;;5.05;1.08;;;10.60;99.90;;;;;;5062510;28;20048;-64
2023/12/26 01:08:59;;;;;;;5.20;1.00;;;10.70;99.90;;;;;;5061968;28;20048;-64
2023/12/26 01:11:26;;;;;;;3.30;0.77;;;10.60;99.90;;;;;;5058688;28;20470;-64
2023/12/26 01:13:52;;;;;;;3.83;1.05;;;10.60;99.90;;;;;;5057270;28;20089;-64
2023/12/26 01:16:18;;;;;;;7.25;1.42;;;10.60;99.90;;;;;;5043318;28;20036;-65
2023/12/26 01:18:44;;;;;;;9.27;1.10;;;10.60;99.90;;;;;;5060421;28;20573;-65
2023/12/26 01:21:10;;;;;;;7.80;1.30;;;10.70;99.90;;;;;;5037402;28;20131;-64
2023/12/26 01:23:35;;;;;;;7.15;1.13;;;10.60;99.90;;;;;;5036583;28;20475;-64
2023/12/26 01:26:01;;;;;;;7.10;1.42;;;10.60;99.90;;;;;;5062381;28;20064;-65
2023/12/26 01:28:27;;;;;;;5.78;1.55;;;10.60;99.90;;;;;;5059406;28;20461;-64
2023/12/26 01:30:53;;;;;;;10.45;1.50;;;10.60;99.90;;;;;;5048540;28;20047;-64
2023/12/26 01:33:20;;;;;;;9.15;1.60;;;10.60;99.90;;;;;;5058773;28;20461;-64
2023/12/26 01:35:46;;;;;;;9.73;1.63;;;10.60;99.90;;;;;;5057010;28;20187;-64
2023/12/26 01:38:12;;;;;;;10.48;1.50;;;10.60;99.90;;;;;;5050957;28;20123;-64
2023/12/26 01:40:40;;;;;;;12.07;2.53;;;10.60;99.90;;;;;;5062247;28;20157;-64
2023/12/26 01:43:06;;;;;;;11.98;1.80;;;10.60;99.90;;;;;;5056237;28;20380;-63
2023/12/26 01:45:32;;;;;;;12.50;1.83;;;10.60;99.90;;;;;;5059449;28;20578;-64
2023/12/26 01:48:00;;;;;;;10.80;2.05;;;10.60;99.90;;;;;;5060994;28;20078;-65
2023/12/26 01:50:27;;;;;;;11.77;1.85;;;10.60;99.90;;;;;;5060394;28;20043;-64
2023/12/26 01:52:54;;;;;;;9.57;2.38;;;10.50;99.90;;;;;;5062202;28;20262;-64
2023/12/26 01:55:21;;;;;;;9.18;1.67;;;10.60;99.90;;;;;;5062299;28;20542;-64
2023/12/26 01:57:48;;;;;;;8.50;2.83;;;10.50;99.90;;;;;;5060539;28;20044;-63
2023/12/26 02:00:14;;;;;;;15.98;2.50;;;10.40;99.90;;;;;;5059073;28;20045;-65
2023/12/26 02:02:42;;;;;;;15.60;2.17;;;10.60;99.90;;;;;;5051200;28;20109;-63
2023/12/26 02:05:09;;;;;;;11.13;1.57;;;10.50;99.90;;;;;;5050283;28;20059;-64
2023/12/26 02:07:35;;;;;;;19.48;2.58;;;10.50;99.90;;;;;;5058189;28;20048;-64
2023/12/26 02:10:03;;;;;;;23.45;3.45;;;10.40;99.90;;;;;;5048051;28;20161;-64
2023/12/26 02:12:29;;;;;;;20.52;3.13;;;10.40;99.90;;;;;;5053429;28;20049;-66
2023/12/26 02:14:57;;;;;;;11.18;1.95;;;10.40;99.90;;;;;;5060354;28;20529;-64
2023/12/26 02:17:24;;;;;;;14.68;3.38;;;10.40;99.90;;;;;;5062005;28;20032;-64
2023/12/26 02:19:50;;;;;;;17.58;2.22;;;10.50;99.90;;;;;;5043910;28;20545;-64
2023/12/26 02:22:16;;;;;;;13.75;2.30;;;10.50;99.90;;;;;;5061343;28;20040;-64
2023/12/26 02:24:43;;;;;;;14.48;2.72;;;10.50;99.90;;;;;;5061566;28;20418;-63
2023/12/26 02:27:19;;;;;;;17.85;3.05;;;10.40;99.90;;;;;;5054841;28;20040;-64
2023/12/26 02:29:49;;;;;;;15.43;2.33;;;10.40;99.90;;;;;;5059204;28;20040;-64
2023/12/26 02:32:20;;;;;;;15.35;2.45;;;10.60;99.90;;;;;;5059204;28;20491;-64
2023/12/26 02:34:54;;;;;;;14.15;3.90;;;10.40;99.90;;;;;;5057972;28;20564;-64
2023/12/26 02:37:24;;;;;;;15.63;2.85;;;10.40;99.90;;;;;;5061312;28;20059;-65
2023/12/26 02:39:50;;;;;;;16.55;2.88;;;10.30;99.90;;;;;;5056338;28;20402;-64
2023/12/26 02:42:20;;;;;;;20.38;2.58;;;10.40;99.90;;;;;;5051631;28;20084;-64
2023/12/26 02:44:46;;;;;;;17.85;2.40;;;10.30;99.90;;;;;;5046212;28;20051;-63
2023/12/26 02:47:13;;;;;;;14.43;2.83;;;10.30;99.90;;;;;;5060691;28;20044;-64
2023/12/26 02:49:39;;;;;;;13.73;1.77;;;10.30;99.90;;;;;;5060261;28;20040;-64
2023/12/26 02:52:05;;;;;;;15.27;2.60;;;10.30;99.90;;;;;;5059796;28;20517;-64
2023/12/26 02:54:31;;;;;;;16.40;2.45;;;10.20;99.90;;;;;;5061369;28;20193;-63
2023/12/26 02:56:57;;;;;;;13.35;2.50;;;10.20;99.90;;;;;;5055479;28;20040;-64
2023/12/26 02:59:22;;;;;;;15.10;2.95;;;10.10;99.90;;;;;;5051173;28;21003;-64
2023/12/26 03:01:49;;;;;;;17.42;2.70;;;10.10;99.90;;;;;;5064924;28;20689;-63
2023/12/26 03:04:15;;;;;;;12.05;2.90;;;10.00;99.90;;;;;;5056925;28;20055;-63
2023/12/26 03:06:41;;;;;;;14.40;3.38;;;10.00;99.90;;;;;;5059104;28;20544;-64
2023/12/26 03:09:08;;;;;;;13.85;2.15;;;10.00;99.90;;;;;;5049142;28;20037;-63
2023/12/26 03:11:33;;;;;;;9.90;2.38;;;10.10;99.90;;;;;;5054631;28;20124;-63
2023/12/26 03:13:59;;;;;;;14.57;3.05;;;10.00;99.90;;;;;;5055190;28;20039;-64
2023/12/26 03:16:25;;;;;;;14.38;2.75;;;10.00;99.90;;;;;;5056417;28;20040;-63
2023/12/26 03:18:51;;;;;;;15.10;2.28;;;10.00;99.90;;;;;;5054412;28;20045;-64
2023/12/26 03:21:17;;;;;;;9.48;2.13;;;9.90;99.90;;;;;;5050338;28;20043;-63
2023/12/26 03:23:43;;;;;;;12.77;2.30;;;9.90;99.90;;;;;;5055793;28;20536;-63
2023/12/26 03:26:08;;;;;;;12.65;2.72;;;9.90;99.90;;;;;;5061839;28;20033;-64
2023/12/26 03:28:34;;;;;;;11.45;2.33;;;9.90;99.90;;;;;;5063233;28;20051;-63
2023/12/26 03:31:04;;;;;;;9.95;1.88;;;10.00;99.90;;;;;;5065446;28;20490;-63
2023/12/26 03:33:30;;;;;;;17.40;2.30;;;9.90;99.90;;;;;;5061114;28;20157;-64
2023/12/26 03:35:56;;;;;;;13.02;3.05;;;9.80;99.90;;;;;;5064974;28;20046;-64
2023/12/26 03:38:22;;;;;;;14.75;2.17;;;9.80;99.90;;;;;;5054580;28;20082;-63
2023/12/26 03:40:48;;;;;;;16.63;2.38;;;9.80;99.90;;;;;;5061807;28;20058;-64
2023/12/26 03:43:13;;;;;;;14.15;2.65;;;9.70;99.90;;;;;;5060075;28;20049;-63
2023/12/26 03:45:40;;;;;;;14.35;2.85;;;9.70;99.90;;;;;;5053302;28;20087;-63
2023/12/26 03:48:06;;;;;;;13.00;2.55;;;9.60;99.90;;;;;;5059101;28;20494;-65
2023/12/26 03:50:32;;;;;;;16.02;3.85;;;9.60;99.90;;;;;;5057735;28;20537;-64
2023/12/26 03:52:57;;;;;;;12.45;2.10;;;9.50;99.90;;;;;;5035287;28;20045;-64
2023/12/26 03:55:23;;;;;;;9.50;2.00;;;9.40;99.90;;;;;;5056010;28;20046;-65
2023/12/26 03:57:49;;;;;;;18.85;3.08;;;9.30;99.90;;;;;;5062169;28;20103;-65
2023/12/26 04:00:15;;;;;;;17.90;2.67;;;9.30;99.90;;;;;;5064104;28;20037;-64
2023/12/26 04:02:41;;;;;;;14.40;2.85;;;9.20;99.90;;;;;;5063007;28;20044;-64
2023/12/26 04:05:08;;;;;;;15.30;3.22;;;9.20;99.90;;;;;;5063622;28;20538;-64
2023/12/26 04:07:35;;;;;;;16.25;3.17;;;9.10;99.90;;;;;;5064262;28;20044;-64
2023/12/26 04:10:01;;;;;;;23.20;3.13;;;9.10;99.90;;;;;;5060948;28;20040;-65
2023/12/26 04:12:27;;;;;;;17.10;4.25;;;9.10;99.90;;;;;;5056186;28;20410;-63
2023/12/26 04:14:52;;;;;;;19.45;3.97;;;9.00;99.90;;;;;;5045533;28;20369;-64
2023/12/26 04:17:19;;;;;;;21.00;2.80;;;9.00;99.90;;;;;;5060066;28;20040;-64
2023/12/26 04:19:45;;;;;;;17.02;2.85;;;8.90;99.90;;;;;;5062133;28;20040;-63
2023/12/26 04:22:11;;;;;;;16.08;3.10;;;8.90;99.90;;;;;;5061608;28;20589;-64
2023/12/26 04:24:36;;;;;;;21.48;3.42;;;8.80;99.90;;;;;;5063123;28;20592;-64
2023/12/26 04:27:02;;;;;;;14.88;3.60;;;8.80;99.90;;;;;;5059054;28;20041;-64
2023/12/26 04:29:28;;;;;;;18.92;3.00;;;8.80;99.90;;;;;;5063768;28;20037;-64
2023/12/26 04:31:54;;;;;;;18.90;3.38;;;8.80;99.90;;;;;;5063557;28;20046;-63
2023/12/26 04:34:20;;;;;;;22.08;3.20;;;8.90;99.90;;;;;;5062148;28;20525;-64
2023/12/26 04:36:46;;;;;;;22.15;3.45;;;8.90;99.90;;;;;;5054289;28;20427;-63
2023/12/26 04:39:12;;;;;;;18.13;3.50;;;8.90;99.90;;;;;;5044342;28;20101;-65
2023/12/26 04:41:37;;;;;;;14.52;2.80;;;8.80;99.90;;;;;;5054924;28;20082;-65
2023/12/26 04:44:03;;;;;;;16.65;3.05;;;8.80;99.90;;;;;;5041164;28;20446;-63
2023/12/26 04:46:29;;;;;;;25.50;3.83;;;8.80;99.90;;;;;;5061130;28;20040;-64
2023/12/26 04:48:55;;;;;;;17.90;2.83;;;8.70;99.90;;;;;;5055894;28;20040;-64
2023/12/26 04:51:20;;;;;;;19.08;3.17;;;8.80;99.90;;;;;;5054550;28;20047;-63
2023/12/26 04:53:47;;;;;;;20.05;3.25;;;8.80;99.90;;;;;;5050613;28;21143;-63
2023/12/26 04:56:20;;;;;;;14.00;3.20;;;8.80;99.90;;;;;;5061744;28;20581;-63
2023/12/26 04:58:47;;;;;;;14.77;3.10;;;8.90;99.90;;;;;;5056139;28;20045;-63
2023/12/26 05:01:14;;;;;;;15.88;3.90;;;8.90;99.90;;;;;;5049358;28;20446;-63
2023/12/26 05:03:40;;;;;;;19.13;2.78;;;8.90;99.90;;;;;;5058050;28;20049;-62
2023/12/26 05:06:05;;;;;;;13.55;2.50;;;8.90;99.90;;;;;;5059826;28;20047;-63
2023/12/26 05:08:31;;;;;;;22.70;4.30;;;8.90;99.90;;;;;;5050153;28;20331;-63
2023/12/26 05:10:57;;;;;;;15.82;3.25;;;8.90;99.90;;;;;;5059760;28;20075;-63
2023/12/26 05:13:23;;;;;;;10.25;2.33;;;8.90;99.90;;;;;;5059855;28;20059;-63
2023/12/26 05:15:49;;;;;;;13.20;2.92;;;8.90;99.90;;;;;;5056000;28;20376;-63
2023/12/26 05:18:15;;;;;;;16.77;2.83;;;9.00;99.90;;;;;;5060171;28;20166;-63
2023/12/26 05:20:41;;;;;;;15.63;3.08;;;9.00;99.90;;;;;;5054791;28;20045;-63
2023/12/26 05:23:07;;;;;;;21.60;2.95;;;9.00;99.90;;;;;;5062652;28;20036;-64
2023/12/26 05:25:33;;;;;;;17.33;2.95;;;9.00;99.90;;;;;;5056962;28;20604;-63
2023/12/26 05:27:59;;;;;;;22.80;2.97;;;9.10;99.90;;;;;;5058784;28;20040;-63
2023/12/26 05:30:24;;;;;;;21.92;2.70;;;9.10;99.90;;;;;;5062707;28;20040;-63
2023/12/26 05:32:50;;;;;;;13.57;2.95;;;9.10;99.90;;;;;;5056343;28;20560;-64
2023/12/26 05:35:16;;;;;;;17.88;3.00;;;9.10;99.90;;;;;;5055671;28;20365;-63
2023/12/26 05:37:42;;;;;;;17.23;3.50;;;9.20;99.90;;;;;;5060575;28;20407;-63
2023/12/26 05:40:08;;;;;;;19.13;2.90;;;9.20;99.90;;;;;;5061800;28;20083;-63
2023/12/26 05:42:34;;;;;;;15.52;2.65;;;9.20;99.90;;;;;;5061454;28;20613;-63
2023/12/26 05:45:00;;;;;;;22.80;3.20;;;9.20;99.90;;;;;;5061923;28;20064;-63
2023/12/26 05:47:25;;;;;;;12.30;3.80;;;9.20;99.90;;;;;;5059386;28;20040;-63
2023/12/26 05:49:53;;;;;;;16.75;2.53;;;9.20;99.90;;;;;;5053148;28;20036;-63
2023/12/26 05:52:18;;;;;;;16.88;3.10;;;9.20;99.90;;;;;;5060098;28;20432;-64
2023/12/26 05:54:44;;;;;;;12.35;2.33;;;9.20;99.90;;;;;;5061205;28;20445;-63
2023/12/26 05:57:10;;;;;;;19.58;3.20;;;9.20;99.90;;;;;;5051817;28;20043;-63
2023/12/26 05:59:36;;;;;;;19.25;2.53;;;9.30;99.90;;;;;;5059956;28;20216;-63
2023/12/26 06:02:02;;;;;;;12.82;2.17;;;9.20;99.90;;;;;;5061988;28;20048;-63
2023/12/26 06:04:28;;;;;;;19.50;3.40;;;9.20;99.90;;;;;;5053494;28;20046;-63
2023/12/26 06:06:53;;;;;;;11.05;1.95;;;9.30;99.90;;;;;;5045756;28;20440;-64
2023/12/26 06:09:19;;;;;;;15.18;2.17;;;9.20;99.90;;;;;;5055544;28;20032;-64
2023/12/26 06:11:45;;;;;;;14.80;2.53;;;9.30;99.90;;;;;;5054339;28;20045;-64
2023/12/26 06:14:11;;;;;;;21.33;2.92;;;9.20;99.90;;;;;;5058956;28;20040;-63
2023/12/26 06:16:36;;;;;;;12.52;2.42;;;9.20;99.90;;;;;;5055314;28;20049;-63
2023/12/26 06:19:02;;;;;;;12.48;2.20;;;9.20;99.90;;;;;;5056304;28;20033;-63
2023/12/26 06:21:28;;;;;;;13.98;2.92;;;9.20;99.90;;;;;;5055208;28;20033;-64
2023/12/26 06:23:53;;;;;;;9.90;2.13;;;9.30;99.90;;;;;;5060730;28;20097;-63
2023/12/26 06:26:19;;;;;;;19.95;3.47;;;9.30;99.90;;;;;;5058025;28;20093;-63
2023/12/26 06:28:45;;;;;;;15.95;3.28;;;9.20;99.90;;;;;;5061264;28;20444;-64
2023/12/26 06:31:13;;;;;;;16.33;3.35;;;9.20;99.90;;;;;;5057335;28;20033;-63
2023/12/26 06:33:39;;;;;;;16.60;2.83;;;9.20;99.90;;;;;;5058481;28;20167;-64
2023/12/26 06:36:06;;;;;;;16.88;2.90;;;9.20;99.90;;;;;;5057911;28;20475;-63
2023/12/26 06:38:32;;;;;;;20.23;2.70;;;9.10;99.90;;;;;;5037999;28;20041;-63
2023/12/26 06:40:57;;;;;;;11.15;2.83;;;9.20;99.90;;;;;;5047535;28;20042;-63
2023/12/26 06:43:23;;;;;;;20.20;2.80;;;9.10;99.90;;;;;;5038123;28;20129;-63
2023/12/26 06:45:49;;;;;;;21.58;3.50;;;9.00;99.90;;;;;;5054635;28;20032;-63
2023/12/26 06:48:15;;;;;;;22.38;3.33;;;9.00;99.90;;;;;;5049142;28;20085;-63
2023/12/26 06:50:41;;;;;;;20.42;3.40;;;9.10;99.90;;;;;;5059758;28;20586;-65
2023/12/26 06:53:06;;;;;;;21.88;2.63;;;9.10;99.90;;;;;;5043554;28;20036;-62
2023/12/26 06:55:32;;;;;;;16.60;2.90;;;9.10;99.90;;;;;;5054561;28;20045;-63
2023/12/26 06:57:58;;;;;;;19.40;3.42;;;9.10;99.90;;;;;;5060524;28;20093;-64
2023/12/26 07:00:24;;;;;;;14.55;2.83;;;9.10;99.90;;;;;;5055735;28;20051;-64
2023/12/26 07:02:50;;;;;;;29.25;3.65;;;9.20;99.90;;;;;;5050733;28;20036;-63
2023/12/26 07:05:16;;;;;;;23.52;2.83;;;9.10;99.90;;;;;;5061055;28;20048;-63
2023/12/26 07:07:41;;;;;;;15.05;2.60;;;9.10;99.90;;;;;;5060792;28;20102;-64
2023/12/26 07:10:07;;;;;;;11.93;3.17;;;9.10;99.90;;;;;;5053023;28;20040;-63
2023/12/26 07:12:33;;;;;;;21.40;3.22;;;9.20;99.90;;;;;;5048896;28;20055;-63
2023/12/26 07:14:59;;;;;;;19.88;3.17;;;9.10;99.90;;;;;;5033514;28;20110;-65
2023/12/26 07:17:25;;;;;;;17.10;3.22;;;9.10;99.90;;;;;;5051686;28;20041;-63
2023/12/26 07:19:50;;;;;;;22.63;3.67;;;9.10;99.90;;;;;;5054912;28;20056;-64
2023/12/26 07:22:16;;;;;;;28.05;3.10;;;9.10;99.90;;;;;;5058961;28;20036;-63
2023/12/26 07:24:42;;;;;;;18.23;3.97;;;9.10;99.90;;;;;;5051464;28;20095;-63
2023/12/26 07:27:11;;;;;;;21.45;3.25;;;9.10;99.90;;;;;;5059257;28;20119;-63
2023/12/26 07:29:37;;;;;;;21.02;3.53;;;9.10;99.90;;;;;;5056915;28;20045;-63
2023/12/26 07:32:03;;;;;;;20.27;3.30;;;9.10;99.90;;;;;;5060787;28;20045;-63
2023/12/26 07:34:29;;;;;;;20.23;3.05;;;9.20;99.90;;;;;;5060351;28;20036;-63
2023/12/26 07:36:54;;;;;;;15.07;3.08;;;9.20;99.90;;;;;;5051406;28;20037;-62
2023/12/26 07:39:20;;;;;;;20.95;3.45;;;9.20;99.90;;;;;;5057670;28;20301;-63
2023/12/26 07:41:46;;;;;;;14.77;2.83;;;9.10;99.90;;;;;;5055847;28;20178;-65
2023/12/26 07:44:12;;;;;;;21.48;3.00;;;9.20;99.90;;;;;;5053073;28;20348;-63
2023/12/26 07:46:37;;;;;;;19.95;3.30;;;9.20;99.90;;;;;;5055765;28;20524;-63
2023/12/26 07:49:03;;;;;;;15.63;2.72;;;9.30;99.90;;;;;;5055637;28;20071;-63
2023/12/26 07:51:29;;;;;;;23.73;3.80;;;9.20;99.90;;;;;;5053500;28;20127;-64
2023/12/26 07:53:55;;;;;;;20.33;3.33;;;9.20;99.90;;;;;;5058103;28;20443;-63
2023/12/26 07:56:21;;;;;;;15.82;2.40;;;9.20;99.90;;;;;;5059969;28;20491;-63
2023/12/26 07:58:47;;;;;;;11.90;2.63;;;9.20;99.90;;;;;;5058958;28;20166;-63
2023/12/26 08:01:13;;;;;;;18.80;3.75;;;9.20;99.90;;;;;;5057253;28;20272;-63
2023/12/26 08:03:39;;;;;;;18.98;3.50;;;9.20;99.90;;;;;;5059558;28;20044;-63
2023/12/26 08:06:05;;;;;;;20.95;3.10;;;9.30;99.90;;;;;;5041023;28;20494;-63
2023/12/26 08:08:31;;;;;;;18.98;2.72;;;9.20;99.90;;;;;;5058655;28;20036;-63
2023/12/26 08:10:56;;;;;;;23.30;4.03;;;9.20;99.90;;;;;;5063587;28;20052;-63
2023/12/26 08:13:22;;;;;;;16.20;2.90;;;9.20;99.90;;;;;;5061748;28;20079;-63
2023/12/26 08:15:48;;;;;;;15.98;3.28;;;9.20;99.90;;;;;;5058392;28;20078;-64
2023/12/26 08:18:14;;;;;;;19.52;3.22;;;9.20;99.90;;;;;;5061777;28;20350;-63
2023/12/26 08:20:40;;;;;;;15.93;3.78;;;9.20;99.90;;;;;;5061609;28;20045;-63
2023/12/26 08:23:07;;;;;;;17.83;3.38;;;9.10;99.90;;;;;;5059804;28;20040;-63
2023/12/26 08:25:33;;;;;;;18.55;2.67;;;9.10;99.90;;;;;;5061186;28;20601;-63
2023/12/26 08:27:59;;;;;;;20.35;3.20;;;9.20;99.90;;;;;;5063845;28;20044;-63
2023/12/26 08:30:24;;;;;;;17.67;2.95;;;9.10;99.90;;;;;;5061627;28;20082;-63
2023/12/26 08:32:50;;;;;;;19.70;3.40;;;9.20;99.90;;;;;;5061092;28;20040;-63
2023/12/26 08:35:16;;;;;;;15.75;2.97;;;9.20;99.90;;;;;;5060772;28;20492;-63
2023/12/26 08:37:42;;;;;;;19.17;3.70;;;9.20;99.90;;;;;;5059758;28;20150;-62
2023/12/26 08:40:08;;;;;;;19.63;3.85;;;9.20;99.90;;;;;;5063750;28;20157;-63
2023/12/26 08:42:33;;;;;;;17.60;3.15;;;9.10;99.90;;;;;;5058067;28;20906;-63
2023/12/26 08:44:59;;;;;;;19.10;2.90;;;9.20;99.90;;;;;;5062549;28;20044;-63
2023/12/26 08:47:25;;;;;;;24.05;3.83;;;9.20;99.90;;;;;;5063435;28;20082;-63
2023/12/26 08:49:51;;;;;;;20.88;3.72;;;9.20;99.90;;;;;;5054887;28;20036;-62
2023/12/26 08:52:16;;;;;;;16.10;2.97;;;9.30;99.90;;;;;;5045188;28;20044;-63
2023/12/26 08:54:43;;;;;;;18.88;3.25;;;9.20;99.90;;;;;;5054857;28;20052;-62
2023/12/26 08:57:09;;;;;;;19.92;3.55;;;9.30;99.90;;;;;;5063017;28;20050;-62
2023/12/26 08:59:34;;;;;;;19.40;3.17;;;9.30;99.90;;;;;;5055619;28;20044;-63
2023/12/26 09:02:00;;;;;;;18.67;3.00;;;9.30;99.90;;;;;;5037402;28;20048;-63
2023/12/26 09:04:26;;;;;;;21.25;3.33;;;9.20;99.90;;;;;;5051562;28;20039;-64
2023/12/26 09:06:55;;;;;;;18.15;3.67;;;9.20;99.90;;;;;;5056218;28;20502;-62
2023/12/26 09:09:21;;;;;;;18.40;2.67;;;9.20;99.90;;;;;;5044982;28;20051;-64
2023/12/26 09:11:46;;;;;;;18.05;3.35;;;9.30;99.90;;;;;;5057881;28;20041;-63
2023/12/26 09:14:13;;;;;;;17.15;3.35;;;9.30;99.90;;;;;;5063756;28;20102;-63
2023/12/26 09:16:40;;;;;;;14.02;3.28;;;9.30;99.90;;;;;;5062309;28;20149;-62
2023/12/26 09:19:05;;;;;;;13.70;3.15;;;9.40;99.90;;;;;;5062690;28;20060;-63
2023/12/26 09:21:31;;;;;;;15.27;2.80;;;9.40;99.90;;;;;;5062595;28;20121;-63
2023/12/26 09:23:57;;;;;;;19.13;3.15;;;9.40;99.90;;;;;;5060971;28;20106;-63
2023/12/26 09:26:24;;;;;;;14.80;3.25;;;9.50;99.90;;;;;;5058955;28;20049;-63
2023/12/26 09:28:50;;;;;;;16.30;3.13;;;9.50;99.90;;;;;;5059763;28;20131;-62
2023/12/26 09:31:16;;;;;;;16.00;3.75;;;9.50;99.90;;;;;;5061960;28;20416;-63
2023/12/26 09:33:42;;;;;;;15.18;2.80;;;9.50;99.90;;;;;;5059226;28;20449;-62
2023/12/26 09:36:08;;;;;;;20.02;3.60;;;9.50;99.90;;;;;;5058032;28;20407;-62
2023/12/26 09:38:34;;;;;;;22.38;3.80;;;9.50;99.90;;;;;;5040208;28;20082;-62
2023/12/26 09:41:00;;;;;;;21.85;4.05;;;9.50;99.90;;;;;;5064296;28;20072;-63
2023/12/26 09:43:27;;;;;;;21.15;3.42;;;9.50;99.90;;;;;;5062595;28;20132;-65
2023/12/26 09:45:53;;;;;;;16.77;3.08;;;9.50;99.90;;;;;;5059871;28;20036;-65
2023/12/26 09:48:18;;;;;;;18.13;2.88;;;9.50;99.90;;;;;;5058042;28;20431;-62
2023/12/26 09:50:46;;;;;;;17.42;4.53;;;9.40;99.90;;;;;;5061725;28;20043;-63
2023/12/26 09:53:17;;;;;;;27.02;4.10;;;9.50;99.90;;;;;;5055967;28;20564;-62
2023/12/26 09:55:43;;;;;;;15.82;3.28;;;9.50;99.90;;;;;;5061048;28;20037;-63
2023/12/26 09:58:09;;;;;;;16.95;2.97;;;9.50;99.90;;;;;;5037824;28;20039;-62
2023/12/26 10:00:36;;;;;;;15.25;3.83;;;9.50;99.90;;;;;;5043988;28;20047;-62
2023/12/26 10:03:03;;;;;;;14.68;2.75;;;9.60;99.90;;;;;;5062638;28;20150;-62
2023/12/26 10:05:29;;;;;;;19.85;2.78;;;9.60;99.90;;;;;;5062332;28;20545;-62
2023/12/26 10:07:54;;;;;;;16.33;3.47;;;9.60;99.90;;;;;;5059873;28;20041;-63
2023/12/26 10:10:21;;;;;;;19.30;3.40;;;9.60;99.90;;;;;;5061640;28;20119;-62
2023/12/26 10:12:47;;;;;;;25.35;3.53;;;9.60;99.90;;;;;;5053324;28;20098;-63
2023/12/26 10:15:13;;;;;;;26.35;4.72;;;9.60;99.90;;;;;;5056044;28;20044;-62
2023/12/26 10:17:42;;;;;;;18.80;3.60;;;9.60;99.90;;;;;;5062349;28;20048;-62
2023/12/26 10:20:13;;;;;;;;;;;9.70;99.90;;;;;;5062727;28;20040;-62
2023/12/26 10:22:42;;;;;;;22.23;2.60;;;9.70;99.90;;;;;;5061520;28;19967;-62
2023/12/26 10:25:12;;;;;;;17.50;3.83;;;9.70;99.90;;;;;;5055410;28;20427;-62
2023/12/26 10:27:38;;;;;;;23.63;3.53;;;9.70;99.90;;;;;;5043524;28;20040;-63
2023/12/26 10:30:05;;;;;;;14.60;3.40;;;9.60;99.90;;;;;;5061103;28;20090;-63
2023/12/26 10:32:31;;;;;;;16.70;3.15;;;9.70;99.90;;;;;;5059825;28;20048;-63
2023/12/26 10:35:14;;;;;;;15.30;4.20;;;9.70;99.90;;;;;;5060699;28;20044;-64
2023/12/26 10:37:40;;;;;;;15.07;2.90;;;9.70;99.90;;;;;;5058355;28;20403;-63
2023/12/26 10:40:08;;;;;;;23.48;3.05;;;9.70;99.90;;;;;;5053964;28;20045;-63
2023/12/26 10:42:41;;;;;;;27.17;4.05;;;9.80;99.90;;;;;;5050186;28;20120;-63
2023/12/26 10:45:08;;;;;;;19.77;3.45;;;9.80;99.90;;;;;;5059757;28;20045;-63
2023/12/26 10:47:34;;;;;;;18.85;2.95;;;9.80;99.90;;;;;;5061967;28;20045;-63
2023/12/26 10:50:02;;;;;;;15.90;3.90;;;9.90;99.90;;;;;;5060884;28;20047;-62
2023/12/26 10:52:30;;;;;;;20.05;4.05;;;9.90;99.90;;;;;;5061298;28;20061;-62
2023/12/26 10:54:59;;;;;;;14.68;2.80;;;9.90;99.90;;;;;;5056112;28;20056;-63
2023/12/26 10:57:25;;;;;;;21.17;3.63;;;9.90;99.90;;;;;;5057734;28;20036;-63
2023/12/26 13:51:31;;;;;;;3.33;1.15;;;9.00;99.90;;;;;;5058106;28;20044;-63
2023/12/26 13:53:56;;;;;;;4.15;0.85;;;8.90;99.90;;;;;;5062906;28;20045;-62
2023/12/26 13:56:22;;;;;;;3.97;1.10;;;9.00;99.90;;;;;;5056605;28;20028;-63
2023/12/26 13:58:48;;;;;;;6.15;0.75;;;8.90;99.90;;;;;;5062657;28;20036;-62
2023/12/26 14:01:18;;;;;;;7.78;0.93;;;8.90;99.90;;;;;;5060537;28;20055;-63
2023/12/26 14:03:50;;;;;;;13.50;1.77;;;8.90;99.90;;;;;;5060992;28;20627;-64
2023/12/26 14:06:20;;;;;;;8.10;1.58;;;8.90;99.90;;;;;;5055038;28;20037;-62
2023/12/26 14:08:50;;;;;;;9.48;1.35;;;8.80;99.90;;;;;;5063091;28;20079;-63
2023/12/26 14:11:19;;;;;;;9.68;1.50;;;8.90;99.90;;;;;;5051179;28;20153;-62
2023/12/26 14:13:48;;;;;;;;;;;8.70;99.90;;;;;;5062424;28;20526;-62
2023/12/26 14:16:15;;;;;;;9.65;1.10;;;8.70;99.90;;;;;;5061823;28;19931;-62
2023/12/26 14:18:41;;;;;;;12.35;1.70;;;8.60;99.90;;;;;;5059264;28;20119;-63
2023/12/26 14:21:07;;;;;;;4.80;1.02;;;8.60;99.90;;;;;;5058795;28;20574;-62
2023/12/26 14:23:32;;;;;;;9.48;1.08;;;8.50;99.90;;;;;;5061129;28;20506;-63
2023/12/26 14:25:58;;;;;;;8.68;1.33;;;8.40;99.90;;;;;;5047889;28;20045;-62
2023/12/26 14:28:24;;;;;;;6.25;1.83;;;8.40;99.90;;;;;;5044093;28;20505;-63
2023/12/26 14:30:50;;;;;;;8.35;1.60;;;8.40;99.90;;;;;;5059661;28;20033;-62
2023/12/26 14:33:19;;;;;;;7.40;1.10;;;8.50;99.90;;;;;;5055651;28;20048;-62
2023/12/26 14:35:49;;;;;;;;;;;8.40;99.90;;;;;;5062636;28;20044;-62
2023/12/26 14:38:18;;;;;;;7.60;1.30;;;8.40;99.90;;;;;;5054444;28;20474;-62
2023/12/26 14:40:44;;;;;;;;;;;8.40;99.90;;;;;;5053747;28;20052;-63
2023/12/26 14:43:10;;;;;;;12.38;1.48;;;8.30;99.90;;;;;;5053168;28;19920;-63
2023/12/26 14:45:36;;;;;;;11.93;1.35;;;8.30;99.90;;;;;;5057502;28;20049;-62
2023/12/26 14:48:02;;;;;;;4.50;1.05;;;8.20;99.90;;;;;;5059993;28;20152;-62
2023/12/26 14:50:30;;;;;;;4.93;1.55;;;8.20;99.90;;;;;;5061856;28;20084;-62
2023/12/26 14:52:56;;;;;;;8.20;1.55;;;8.20;99.90;;;;;;5032566;28;20075;-62
2023/12/26 14:55:22;;;;;;;6.13;1.20;;;8.20;99.90;;;;;;5061627;28;20068;-62
2023/12/26 14:57:47;;;;;;;7.38;1.20;;;8.20;99.90;;;;;;5058770;28;20201;-62
2023/12/26 15:00:13;;;;;;;11.25;1.67;;;8.10;99.90;;;;;;5058630;28;20037;-62
2023/12/26 15:02:39;;;;;;;7.47;1.05;;;8.20;99.90;;;;;;5062223;28;20406;-61
2023/12/26 15:05:05;;;;;;;7.38;1.08;;;8.10;99.90;;;;;;5059337;28;20051;-62
2023/12/26 15:07:31;;;;;;;10.50;1.77;;;8.10;99.90;;;;;;5059788;28;20076;-63
2023/12/26 15:09:57;;;;;;;8.75;1.85;;;8.00;99.90;;;;;;5059178;28;20373;-62
2023/12/26 15:12:23;;;;;;;10.40;1.65;;;8.00;99.90;;;;;;5060698;28;20028;-62
2023/12/26 15:14:48;;;;;;;8.57;1.10;;;8.00;99.90;;;;;;5058216;28;20388;-63
2023/12/26 15:17:15;;;;;;;7.38;1.40;;;7.90;99.90;;;;;;5057829;28;20125;-62
2023/12/26 15:19:41;;;;;;;5.82;1.05;;;7.90;99.90;;;;;;5065444;28;20518;-62
2023/12/26 15:22:08;;;;;;;9.20;1.38;;;7.90;99.90;;;;;;5063743;28;20450;-62
2023/12/26 15:24:33;;;;;;;8.27;1.10;;;7.80;99.90;;;;;;5065509;28;20089;-63
2023/12/26 15:26:59;;;;;;;12.45;1.77;;;7.80;99.90;;;;;;5061378;28;20036;-62
2023/12/26 15:29:25;;;;;;;6.00;1.70;;;7.80;99.90;;;;;;5057660;28;20463;-62
2023/12/26 15:31:51;;;;;;;14.65;5.45;;;7.70;99.90;;;;;;5063289;28;20043;-62
2023/12/26 15:34:17;;;;;;;11.25;3.58;;;7.70;99.90;;;;;;5044445;28;20082;-62